Time;durP1;ratioP1;P1;durP2;ratioP2;P2;SDS_P1;SDS_P2;PMS_P1;PMS_P2;Temp;Humidity;BMP_temperature;BMP_pressure;BME280_temperature;BME280_humidity;BME280_pressure;Samples;Min_cycle;Max_cycle;Signal;HPM_P1;HPM_P2
2024/02/24 00:00:57;;;;;;;5.30;2.55;;;;;;;3.04;96.78;97985.88;5023035;28;20057;-62
2024/02/24 00:03:24;;;;;;;6.35;2.45;;;;;;;3.04;96.83;97986.66;5020499;28;20060;-62
2024/02/24 00:05:52;;;;;;;3.92;2.17;;;;;;;3.05;96.60;97987.44;5017974;28;20045;-62
2024/02/24 00:08:19;;;;;;;6.00;2.03;;;;;;;3.04;96.87;97986.66;5021287;28;20411;-63
2024/02/24 00:10:47;;;;;;;6.43;2.15;;;;;;;3.05;97.11;97992.91;5020296;28;20057;-62
2024/02/24 00:13:14;;;;;;;4.68;2.70;;;;;;;3.05;96.73;97982.78;5021378;28;20118;-62
2024/02/24 00:15:42;;;;;;;7.75;2.38;;;;;;;3.06;96.93;97991.78;5015864;28;20056;-62
2024/02/24 00:18:10;;;;;;;3.80;3.05;;;;;;;3.05;96.70;97990.97;5026226;28;20049;-61
2024/02/24 00:20:37;;;;;;;6.07;2.65;;;;;;;3.05;96.86;97995.66;5025039;28;20440;-64
2024/02/24 00:23:05;;;;;;;6.72;2.88;;;;;;;3.03;96.92;97987.81;5024804;28;20502;-61
2024/02/24 00:25:34;;;;;;;5.88;2.50;;;;;;;3.02;96.94;97993.63;5026114;28;20120;-62
2024/02/24 00:28:01;;;;;;;8.65;3.00;;;;;;;3.01;97.46;97987.41;5026681;28;20808;-62
2024/02/24 00:30:29;;;;;;;10.90;2.88;;;;;;;2.99;97.13;98003.34;5026353;28;20065;-61
2024/02/24 00:32:56;;;;;;;8.10;3.40;;;;;;;2.98;97.14;97998.25;5026018;28;20061;-62
2024/02/24 00:35:28;;;;;;;8.43;2.55;;;;;;;2.96;97.42;97993.16;5011429;28;20057;-62
2024/02/24 00:37:56;;;;;;;5.85;2.28;;;;;;;2.95;97.51;97997.03;5025161;28;20049;-62
2024/02/24 00:40:23;;;;;;;6.88;2.22;;;;;;;2.95;97.55;97997.03;5026140;28;20041;-62
2024/02/24 00:42:51;;;;;;;7.15;2.35;;;;;;;2.95;97.64;97994.31;5026356;28;20045;-62
2024/02/24 00:45:18;;;;;;;5.63;2.53;;;;;;;2.93;97.69;98007.53;5025970;28;20522;-62
2024/02/24 00:47:46;;;;;;;4.95;2.03;;;;;;;2.94;97.37;98009.09;5026050;28;20045;-62
2024/02/24 00:50:13;;;;;;;3.38;2.20;;;;;;;2.94;97.72;98008.31;5026684;28;20037;-62
2024/02/24 00:52:41;;;;;;;10.70;2.30;;;;;;;2.96;97.62;98012.28;5025296;28;20053;-63
2024/02/24 00:55:08;;;;;;;6.78;2.45;;;;;;;2.97;97.74;98013.84;5026158;28;20046;-62
2024/02/24 00:57:36;;;;;;;5.30;1.60;;;;;;;3.00;97.97;98026.81;5025211;28;20045;-62
2024/02/24 01:00:04;;;;;;;5.80;2.60;;;;;;;3.02;97.77;98023.69;5025817;28;20403;-62
2024/02/24 01:02:31;;;;;;;3.53;1.88;;;;;;;3.06;97.82;98016.38;5025544;28;20057;-62
2024/02/24 01:04:58;;;;;;;4.07;1.95;;;;;;;3.09;98.13;98012.91;5025393;28;20745;-62
2024/02/24 01:07:26;;;;;;;3.83;1.85;;;;;;;3.11;98.03;98024.28;5024666;28;20057;-62
2024/02/24 01:09:53;;;;;;;2.83;1.58;;;;;;;3.14;98.18;98034.47;5022749;28;20064;-62
2024/02/24 01:12:20;;;;;;;3.65;1.70;;;;;;;3.17;98.20;98032.97;5024157;28;20692;-62
2024/02/24 01:14:48;;;;;;;2.63;1.30;;;;;;;3.19;98.33;98030.66;5025348;28;20053;-62
2024/02/24 01:17:15;;;;;;;3.78;1.95;;;;;;;3.21;98.06;98036.53;5023596;28;20046;-62
2024/02/24 01:19:43;;;;;;;11.10;2.20;;;;;;;3.23;98.25;98039.72;5024623;28;20041;-63
2024/02/24 01:22:12;;;;;;;2.88;1.27;;;;;;;3.24;98.32;98050.28;5014949;28;20054;-63
2024/02/24 01:24:39;;;;;;;5.95;1.95;;;;;;;3.27;98.31;98043.31;5024848;28;20053;-62
2024/02/24 01:27:07;;;;;;;5.55;1.75;;;;;;;3.29;98.57;98041.00;5024213;28;20783;-62
2024/02/24 01:29:34;;;;;;;3.67;1.67;;;;;;;3.32;98.11;98051.19;5025674;28;20056;-62
2024/02/24 01:32:01;;;;;;;5.40;1.30;;;;;;;3.34;98.43;98051.63;5025851;28;20495;-62
2024/02/24 01:34:29;;;;;;;2.60;1.55;;;;;;;3.38;98.55;98055.22;5012479;28;20048;-62
2024/02/24 01:36:56;;;;;;;4.55;1.73;;;;;;;3.39;98.53;98059.56;5024318;28;20049;-62
2024/02/24 01:39:24;;;;;;;6.07;2.13;;;;;;;3.44;98.65;98059.25;5019963;28;20511;-63
2024/02/24 01:41:51;;;;;;;5.13;1.88;;;;;;;3.46;98.58;98067.88;5028904;28;20049;-62
2024/02/24 01:44:18;;;;;;;3.42;1.52;;;;;;;3.50;98.83;98069.53;5028959;28;20046;-62
2024/02/24 01:46:47;;;;;;;2.20;1.50;;;;;;;3.52;98.53;98063.69;5025711;28;20049;-61
2024/02/24 01:49:15;;;;;;;7.78;2.00;;;;;;;3.52;98.92;98072.66;5028939;28;20084;-60
2024/02/24 01:51:44;;;;;;;2.70;1.70;;;;;;;3.55;98.69;98076.63;5028232;28;20084;-61
2024/02/24 01:54:13;;;;;;;3.05;1.58;;;;;;;3.54;98.66;98070.38;5028744;28;20045;-61
2024/02/24 01:56:43;;;;;;;4.20;1.75;;;;;;;3.56;98.88;98078.22;5027663;28;20076;-61
2024/02/24 01:59:12;;;;;;;5.85;1.60;;;;;;;3.56;98.78;98079.00;5029162;28;20077;-60
2024/02/24 02:01:40;;;;;;;5.22;1.77;;;;;;;3.54;99.08;98075.84;5027933;28;20062;-61
2024/02/24 02:04:07;;;;;;;3.70;2.03;;;;;;;3.53;99.32;98071.53;5029255;28;20049;-60
2024/02/24 02:06:35;;;;;;;2.20;1.75;;;;;;;3.52;99.27;98078.16;5027859;28;20403;-61
2024/02/24 02:09:03;;;;;;;2.33;1.77;;;;;;;3.53;99.55;98074.25;5024769;28;20235;-61
2024/02/24 02:11:31;;;;;;;4.57;2.22;;;;;;;3.53;99.58;98068.78;5028000;28;20060;-61
2024/02/24 02:14:01;;;;;;;2.03;1.85;;;;;;;3.53;99.34;98070.72;5028283;28;20519;-61
2024/02/24 02:16:29;;;;;;;2.72;1.50;;;;;;;3.50;99.59;98077.72;5027477;28;20068;-62
2024/02/24 02:18:56;;;;;;;3.03;1.65;;;;;;;3.46;99.61;98076.88;5027699;28;20515;-60
2024/02/24 02:21:25;;;;;;;3.90;2.08;;;;;;;3.41;99.96;98076.38;5027718;28;20046;-61
2024/02/24 02:23:52;;;;;;;9.57;1.88;;;;;;;3.37;99.73;98080.97;5027559;28;20602;-61
2024/02/24 02:26:20;;;;;;;6.40;1.90;;;;;;;3.34;100.00;98082.50;5027447;28;20499;-62
2024/02/24 02:28:48;;;;;;;3.45;1.55;;;;;;;3.31;99.95;98077.00;5028034;28;20042;-61
2024/02/24 02:31:16;;;;;;;5.07;1.48;;;;;;;3.27;100.00;98087.06;5025893;28;20037;-60
2024/02/24 02:33:43;;;;;;;5.10;2.35;;;;;;;3.25;99.95;98083.91;5027942;28;20176;-60
2024/02/24 02:36:11;;;;;;;4.53;2.20;;;;;;;3.22;100.00;98082.69;5028547;28;20034;-58
2024/02/24 02:38:38;;;;;;;5.45;1.85;;;;;;;3.18;100.00;98081.78;5027238;28;20042;-61
2024/02/24 02:41:05;;;;;;;4.05;1.65;;;;;;;3.14;100.00;98082.88;5028169;28;20042;-60
2024/02/24 02:43:33;;;;;;;2.95;1.60;;;;;;;3.08;100.00;98091.38;5026358;28;20068;-61
2024/02/24 02:46:00;;;;;;;3.45;1.75;;;;;;;3.04;100.00;98079.56;5026663;28;20049;-61
2024/02/24 02:48:27;;;;;;;4.80;1.85;;;;;;;2.98;100.00;98072.84;5026458;28;20049;-60
2024/02/24 02:50:55;;;;;;;1.58;1.40;;;;;;;2.94;100.00;98079.34;5026803;28;20508;-61
2024/02/24 02:53:22;;;;;;;3.35;1.48;;;;;;;2.89;100.00;98080.44;5026914;28;20400;-61
2024/02/24 02:55:49;;;;;;;2.88;1.45;;;;;;;2.82;100.00;98083.03;5026609;28;20687;-61
2024/02/24 02:58:17;;;;;;;2.53;1.50;;;;;;;2.81;100.00;98086.91;5027245;28;20446;-60
2024/02/24 03:00:46;;;;;;;3.67;1.52;;;;;;;2.81;100.00;98100.56;5037897;22;20032;-60
2024/02/24 03:03:14;;;;;;;4.72;1.67;;;;;;;2.81;100.00;98103.31;5021659;28;20514;-61
2024/02/24 03:05:43;;;;;;;5.18;2.10;;;;;;;2.84;100.00;98090.88;5028647;28;20056;-60
2024/02/24 03:08:10;;;;;;;4.47;1.90;;;;;;;2.89;100.00;98099.56;5028196;28;20053;-60
2024/02/24 03:10:39;;;;;;;5.82;2.40;;;;;;;2.93;100.00;98100.44;5028659;28;20565;-60
2024/02/24 03:13:07;;;;;;;6.75;2.35;;;;;;;2.98;100.00;98108.38;5028338;28;20049;-60
2024/02/24 03:15:35;;;;;;;5.82;3.05;;;;;;;3.01;100.00;98107.66;5028855;28;20057;-61
2024/02/24 03:18:03;;;;;;;8.70;3.10;;;;;;;3.06;100.00;98104.63;5017207;28;20037;-60
2024/02/24 03:20:31;;;;;;;5.97;3.13;;;;;;;3.11;100.00;98113.69;5017757;28;20053;-61
2024/02/24 03:22:58;;;;;;;2.92;2.63;;;;;;;3.12;100.00;98107.88;5026233;28;20598;-61
2024/02/24 03:25:25;;;;;;;4.13;2.30;;;;;;;3.15;100.00;98123.53;5028189;28;20057;-61
2024/02/24 03:27:53;;;;;;;9.93;2.90;;;;;;;3.20;100.00;98114.25;5028066;28;20053;-59
2024/02/24 03:30:20;;;;;;;7.10;3.60;;;;;;;3.23;100.00;98111.56;5027373;28;20057;-61
2024/02/24 03:32:48;;;;;;;3.05;2.40;;;;;;;3.27;100.00;98119.84;5028579;28;20033;-61
2024/02/24 03:35:15;;;;;;;4.45;2.38;;;;;;;3.27;100.00;98128.84;5028326;28;20063;-60
2024/02/24 03:37:43;;;;;;;5.80;2.78;;;;;;;3.25;100.00;98124.91;5028172;28;20056;-60
2024/02/24 03:40:12;;;;;;;5.03;2.20;;;;;;;3.23;100.00;98135.41;5027583;28;20064;-60
2024/02/24 03:42:39;;;;;;;2.78;1.75;;;;;;;3.21;100.00;98146.69;5027538;28;20053;-61
2024/02/24 03:45:07;;;;;;;5.30;1.80;;;;;;;3.19;100.00;98150.94;5027965;28;20049;-60
2024/02/24 03:47:34;;;;;;;3.60;1.67;;;;;;;3.20;100.00;98147.06;5027505;28;20073;-60
2024/02/24 03:50:02;;;;;;;5.80;2.15;;;;;;;3.23;100.00;98160.03;5027114;28;20068;-62
2024/02/24 03:52:29;;;;;;;6.68;2.30;;;;;;;3.25;100.00;98165.91;5026850;28;20050;-61
2024/02/24 03:54:57;;;;;;;8.77;2.05;;;;;;;3.28;100.00;98168.72;5027858;28;20046;-60
2024/02/24 03:57:24;;;;;;;7.22;2.33;;;;;;;3.32;100.00;98171.50;5027230;28;20050;-60
2024/02/24 03:59:51;;;;;;;3.70;2.88;;;;;;;3.35;100.00;98176.28;5026489;28;20498;-61
2024/02/24 04:02:19;;;;;;;6.05;2.20;;;;;;;3.38;100.00;98178.28;5025978;28;20059;-61
2024/02/24 04:04:47;;;;;;;9.18;1.95;;;;;;;3.39;100.00;98179.88;5026201;28;20054;-61
2024/02/24 04:07:15;;;;;;;6.32;2.22;;;;;;;3.40;100.00;98174.03;5025811;28;20042;-60
2024/02/24 04:09:42;;;;;;;9.13;2.42;;;;;;;3.42;100.00;98182.66;5026325;28;20456;-60
2024/02/24 04:12:09;;;;;;;4.95;2.10;;;;;;;3.43;100.00;98178.00;5026803;28;20042;-61
2024/02/24 04:14:37;;;;;;;4.30;1.92;;;;;;;3.44;100.00;98182.31;5026838;28;20515;-59
2024/02/24 04:17:04;;;;;;;4.70;2.38;;;;;;;3.43;100.00;98188.94;5026366;28;20061;-60
2024/02/24 04:19:32;;;;;;;4.15;1.80;;;;;;;3.44;100.00;98196.78;5025655;28;20072;-61
2024/02/24 04:21:59;;;;;;;3.60;2.33;;;;;;;3.44;100.00;98201.47;5018739;28;20593;-61
2024/02/24 04:24:26;;;;;;;9.32;3.63;;;;;;;3.44;100.00;98206.94;5025577;28;20052;-62
2024/02/24 04:26:54;;;;;;;13.20;4.00;;;;;;;3.43;100.00;98211.63;5025985;28;20045;-61
2024/02/24 04:29:21;;;;;;;8.45;2.92;;;;;;;3.43;100.00;98216.28;5022394;28;20118;-61
2024/02/24 04:31:48;;;;;;;5.75;2.83;;;;;;;3.43;100.00;98217.09;5017515;28;20133;-61
2024/02/24 04:34:16;;;;;;;4.70;2.03;;;;;;;3.44;100.00;98228.81;5027344;28;20384;-61
2024/02/24 04:36:43;;;;;;;3.97;2.08;;;;;;;3.44;100.00;98226.09;5027788;28;20051;-60
2024/02/24 04:39:10;;;;;;;7.25;2.85;;;;;;;3.44;100.00;98239.75;5027085;28;20062;-60
2024/02/24 04:41:40;;;;;;;4.60;2.45;;;;;;;3.46;100.00;98237.44;5027848;28;20569;-61
2024/02/24 04:44:07;;;;;;;3.92;2.80;;;;;;;3.46;100.00;98242.91;5026371;28;20045;-61
2024/02/24 04:46:38;;;;;;;5.40;3.05;;;;;;;3.47;100.00;98239.00;5020581;28;20559;-61
2024/02/24 04:49:05;;;;;;;7.10;2.60;;;;;;;3.48;100.00;98257.03;5027276;28;20064;-60
2024/02/24 04:51:33;;;;;;;6.45;2.70;;;;;;;3.50;100.00;98260.19;5016073;28;20054;-61
2024/02/24 04:54:00;;;;;;;6.07;2.78;;;;;;;3.48;100.00;98265.22;5027232;28;20045;-61
2024/02/24 04:56:27;;;;;;;10.13;4.78;;;;;;;3.50;100.00;98268.38;5026139;28;20046;-61
2024/02/24 04:58:55;;;;;;;6.05;3.28;;;;;;;3.46;100.00;98260.13;5027295;28;20680;-60
2024/02/24 05:01:22;;;;;;;9.10;2.78;;;;;;;3.46;100.00;98264.81;5026165;28;20141;-61
2024/02/24 05:03:50;;;;;;;4.78;2.53;;;;;;;3.45;100.00;98268.69;5042386;28;20132;-60
2024/02/24 05:06:17;;;;;;;5.00;2.60;;;;;;;3.41;100.00;98271.34;5026923;28;20053;-60
2024/02/24 05:08:45;;;;;;;4.25;2.63;;;;;;;3.38;100.00;98276.75;5027274;28;20053;-61
2024/02/24 05:11:13;;;;;;;6.97;3.17;;;;;;;3.33;100.00;98271.56;5027602;28;20541;-60
2024/02/24 05:13:41;;;;;;;9.02;2.90;;;;;;;3.26;100.00;98282.31;5026927;28;20068;-61
2024/02/24 05:16:08;;;;;;;5.18;3.03;;;;;;;3.20;100.00;98286.50;5027384;28;20053;-60
2024/02/24 05:18:35;;;;;;;10.18;4.15;;;;;;;3.15;100.00;98295.75;5022417;28;20049;-61
2024/02/24 05:21:03;;;;;;;6.28;4.13;;;;;;;3.09;100.00;98299.91;5031017;28;20132;-61
2024/02/24 05:23:30;;;;;;;9.60;4.10;;;;;;;3.05;100.00;98305.28;5029258;28;20418;-61
2024/02/24 05:25:58;;;;;;;7.57;4.45;;;;;;;3.03;100.00;98304.84;5030928;28;20415;-61
2024/02/24 05:28:26;;;;;;;8.27;4.50;;;;;;;3.02;100.00;98305.19;5030213;28;20049;-60
2024/02/24 05:30:54;;;;;;;10.38;4.55;;;;;;;3.02;100.00;98316.13;5025762;28;20061;-60
2024/02/24 05:33:21;;;;;;;11.15;5.13;;;;;;;3.03;100.00;98325.94;5024276;28;20049;-61
2024/02/24 05:35:49;;;;;;;8.75;4.97;;;;;;;3.06;100.00;98322.50;5030585;28;20042;-60
2024/02/24 05:38:16;;;;;;;8.18;4.68;;;;;;;3.07;100.00;98316.66;5030349;28;20056;-60
2024/02/24 05:40:43;;;;;;;7.47;5.40;;;;;;;3.08;100.00;98326.44;5030133;28;20052;-60
2024/02/24 05:43:11;;;;;;;9.45;6.05;;;;;;;3.12;100.00;98331.22;5030374;28;20530;-60
2024/02/24 05:45:40;;;;;;;6.63;4.78;;;;;;;3.14;100.00;98340.66;5030567;28;20053;-61
2024/02/24 05:48:07;;;;;;;7.38;4.70;;;;;;;3.14;100.00;98340.66;5030146;28;20052;-61
2024/02/24 05:50:35;;;;;;;7.70;4.50;;;;;;;3.16;100.00;98349.28;5030313;28;20054;-60
2024/02/24 05:53:02;;;;;;;9.57;5.50;;;;;;;3.16;100.00;98343.00;5030536;28;20060;-60
2024/02/24 05:55:30;;;;;;;9.43;4.53;;;;;;;3.17;100.00;98344.63;5029769;28;20042;-61
2024/02/24 05:57:57;;;;;;;9.55;4.82;;;;;;;3.16;100.00;98353.94;5030134;28;20057;-60
2024/02/24 06:00:24;;;;;;;7.60;4.70;;;;;;;3.14;100.00;98339.84;5017006;28;20049;-61
2024/02/24 06:02:52;;;;;;;9.45;4.00;;;;;;;3.14;100.00;98348.03;5029857;28;20406;-60
2024/02/24 06:05:19;;;;;;;8.25;5.07;;;;;;;3.13;100.00;98343.72;5030196;28;20499;-61
2024/02/24 06:07:46;;;;;;;12.52;4.43;;;;;;;3.12;100.00;98348.41;5029518;28;20050;-61
2024/02/24 06:10:14;;;;;;;13.70;5.18;;;;;;;3.11;100.00;98340.56;5025032;28;20055;-61
2024/02/24 06:12:41;;;;;;;10.68;4.35;;;;;;;3.11;100.00;98352.28;5029284;28;20061;-61
2024/02/24 06:15:10;;;;;;;7.78;4.15;;;;;;;3.12;100.00;98358.56;5029249;28;20041;-61
2024/02/24 06:17:38;;;;;;;8.98;4.60;;;;;;;3.13;100.00;98371.06;5028952;28;20577;-60
2024/02/24 06:20:06;;;;;;;7.90;4.47;;;;;;;3.14;100.00;98367.19;5028963;28;20450;-60
2024/02/24 06:22:33;;;;;;;14.00;4.28;;;;;;;3.15;100.00;98375.03;5026259;28;20437;-61
2024/02/24 06:25:01;;;;;;;4.65;3.25;;;;;;;3.15;100.00;98375.03;5029287;28;20049;-61
2024/02/24 06:27:30;;;;;;;7.07;4.03;;;;;;;3.13;100.00;98382.78;5029553;28;20049;-61
2024/02/24 06:29:57;;;;;;;8.32;4.07;;;;;;;3.16;100.00;98393.03;5029650;28;20049;-60
2024/02/24 06:32:25;;;;;;;6.07;3.72;;;;;;;3.19;100.00;98392.31;5028215;28;20376;-61
2024/02/24 06:34:52;;;;;;;4.88;3.80;;;;;;;3.19;100.00;98386.84;5028755;28;20046;-62
2024/02/24 06:37:20;;;;;;;11.65;4.95;;;;;;;3.19;100.00;98402.44;5029461;28;20045;-61
2024/02/24 06:39:48;;;;;;;8.05;4.38;;;;;;;3.18;100.00;98412.59;5026627;28;20045;-61
2024/02/24 06:42:15;;;;;;;8.07;4.22;;;;;;;3.18;100.00;98409.84;5029452;28;20068;-61
2024/02/24 06:44:42;;;;;;;9.68;4.93;;;;;;;3.20;100.00;98415.00;5029199;28;20053;-60
2024/02/24 06:47:10;;;;;;;7.15;3.92;;;;;;;3.20;100.00;98417.72;5028938;28;20048;-60
2024/02/24 06:49:54;;;;;;;7.05;4.32;;;;;;;3.20;100.00;98426.72;5029246;28;20054;-61
2024/02/24 06:52:22;;;;;;;8.40;4.47;;;;;;;3.21;100.00;98420.09;5029385;28;20056;-61
2024/02/24 06:54:51;;;;;;;6.53;4.30;;;;;;;3.21;100.00;98422.03;5029091;28;20503;-61
2024/02/24 06:57:18;;;;;;;4.38;3.28;;;;;;;3.20;100.00;98420.47;5028406;28;20045;-61
2024/02/24 06:59:47;;;;;;;5.65;3.88;;;;;;;3.20;100.00;98436.88;5028992;28;20041;-61
2024/02/24 07:02:14;;;;;;;6.97;3.45;;;;;;;3.20;100.00;98445.88;5028651;28;20057;-61
2024/02/24 07:04:42;;;;;;;14.63;3.80;;;;;;;3.20;100.00;98445.88;5028961;28;20041;-61
2024/02/24 07:07:10;;;;;;;3.92;2.67;;;;;;;3.20;100.00;98437.66;5028626;28;20049;-61
2024/02/24 07:09:37;;;;;;;6.50;3.60;;;;;;;3.19;100.00;98451.66;5028324;28;20056;-60
2024/02/24 07:12:05;;;;;;;4.72;2.95;;;;;;;3.18;100.00;98463.75;5027327;28;20052;-61
2024/02/24 07:14:35;;;;;;;6.57;3.15;;;;;;;3.16;100.00;98464.09;5028296;28;20068;-61
2024/02/24 07:17:02;;;;;;;8.38;4.68;;;;;;;3.15;100.00;98461.72;5028819;28;20051;-61
2024/02/24 07:19:30;;;;;;;7.22;4.35;;;;;;;3.16;100.00;98466.03;5028319;28;20045;-61
2024/02/24 07:21:57;;;;;;;6.50;3.53;;;;;;;3.14;100.00;98476.53;5028807;28;20053;-61
2024/02/24 07:24:24;;;;;;;6.07;3.75;;;;;;;3.14;100.00;98488.28;5027817;28;20052;-62
2024/02/24 07:26:52;;;;;;;11.88;4.20;;;;;;;3.16;100.00;98491.44;5027658;28;20486;-61
2024/02/24 07:29:19;;;;;;;7.63;4.13;;;;;;;3.16;100.00;98490.63;5028678;28;20046;-61
2024/02/24 07:31:47;;;;;;;7.40;3.88;;;;;;;3.16;100.00;98490.63;5028479;28;20054;-60
2024/02/24 07:34:14;;;;;;;9.05;4.28;;;;;;;3.18;100.00;98493.84;5027803;28;20057;-61
2024/02/24 07:36:42;;;;;;;7.55;4.60;;;;;;;3.16;100.00;98507.84;5027889;28;20049;-60
2024/02/24 07:39:09;;;;;;;8.77;3.60;;;;;;;3.16;100.00;98507.03;5025470;28;20042;-61
2024/02/24 07:41:41;;;;;;;5.07;4.28;;;;;;;3.18;100.00;98521.19;5026535;28;20058;-60
2024/02/24 07:44:08;;;;;;;11.83;3.97;;;;;;;3.18;100.00;98524.69;5027024;28;20474;-61
2024/02/24 07:46:35;;;;;;;8.93;4.50;;;;;;;3.21;100.00;98536.84;5028430;28;20466;-61
2024/02/24 07:49:03;;;;;;;11.65;4.30;;;;;;;3.21;100.00;98542.31;5027906;28;20046;-61
2024/02/24 07:51:30;;;;;;;11.77;3.88;;;;;;;3.22;100.00;98539.25;5028011;28;20053;-61
2024/02/24 07:53:59;;;;;;;11.13;4.13;;;;;;;3.23;100.00;98545.53;5028501;28;20045;-61
2024/02/24 07:56:27;;;;;;;7.65;4.88;;;;;;;3.25;100.00;98554.16;5027217;28;20487;-62
2024/02/24 07:58:54;;;;;;;16.98;4.93;;;;;;;3.25;100.00;98554.97;5026965;28;20052;-61
2024/02/24 08:01:25;;;;;;;7.57;4.43;;;;;;;3.26;100.00;98563.94;5024668;28;20096;-62
2024/02/24 08:03:52;;;;;;;11.57;4.22;;;;;;;3.27;100.00;98566.34;5028353;28;20060;-60
2024/02/24 08:06:19;;;;;;;8.52;3.83;;;;;;;3.29;100.00;98571.44;5026864;28;20041;-61
2024/02/24 08:08:48;;;;;;;8.85;3.95;;;;;;;3.30;100.00;98573.06;5027496;28;20037;-61
2024/02/24 08:11:16;;;;;;;8.50;3.58;;;;;;;3.31;100.00;98577.38;5027714;28;20049;-61
2024/02/24 08:13:44;;;;;;;6.22;3.10;;;;;;;3.33;100.00;98577.81;5027048;28;20053;-60
2024/02/24 08:16:11;;;;;;;14.43;4.55;;;;;;;3.33;100.00;98573.16;5027419;28;20503;-60
2024/02/24 08:18:39;;;;;;;15.80;4.50;;;;;;;3.35;100.00;98572.78;5026366;28;20050;-61
2024/02/24 08:21:08;;;;;;;7.10;4.20;;;;;;;3.37;100.00;98587.72;5023517;28;20041;-60
2024/02/24 08:23:36;;;;;;;8.90;4.00;;;;;;;3.39;100.00;98584.63;5027849;28;20050;-61
2024/02/24 08:26:04;;;;;;;7.10;3.90;;;;;;;3.40;100.00;98588.94;5027062;28;20389;-61
2024/02/24 08:28:31;;;;;;;9.10;4.00;;;;;;;3.41;100.00;98601.50;5027349;28;20056;-61
2024/02/24 08:30:59;;;;;;;10.23;4.65;;;;;;;3.43;100.00;98599.19;5027215;28;20511;-61
2024/02/24 08:33:28;;;;;;;7.85;3.50;;;;;;;3.45;100.00;98599.63;5027169;28;20045;-61
2024/02/24 08:35:56;;;;;;;8.95;4.32;;;;;;;3.47;100.00;98611.00;5026506;28;20041;-61
2024/02/24 08:38:23;;;;;;;9.32;3.47;;;;;;;3.49;100.00;98608.75;5027948;28;20041;-61
2024/02/24 08:40:51;;;;;;;9.50;4.20;;;;;;;3.51;100.00;98607.25;5025742;28;20507;-61
2024/02/24 08:43:18;;;;;;;10.50;4.28;;;;;;;3.54;100.00;98611.22;5027357;28;20499;-61
2024/02/24 08:45:45;;;;;;;12.32;4.18;;;;;;;3.56;100.00;98603.44;5027455;28;20049;-61
2024/02/24 08:48:12;;;;;;;9.02;3.70;;;;;;;3.59;100.00;98614.50;5027930;28;20514;-61
2024/02/24 08:50:40;;;;;;;12.05;5.30;;;;;;;3.59;100.00;98614.50;5030481;28;20053;-61
2024/02/24 08:53:08;;;;;;;10.60;3.97;;;;;;;3.62;100.00;98613.00;5026630;28;20060;-61
2024/02/24 08:55:35;;;;;;;7.82;4.05;;;;;;;3.63;100.00;98620.03;5029748;28;20058;-60
2024/02/24 08:58:03;;;;;;;17.10;5.80;;;;;;;3.64;100.00;98616.16;5030471;28;20042;-62
2024/02/24 09:00:31;;;;;;;11.25;5.28;;;;;;;3.66;100.00;98619.34;5029162;28;20048;-61
2024/02/24 09:02:58;;;;;;;13.82;4.63;;;;;;;3.69;100.00;98613.16;5031358;28;20053;-60
2024/02/24 09:05:26;;;;;;;10.52;4.57;;;;;;;3.71;100.00;98613.59;5031982;28;20049;-60
2024/02/24 09:07:53;;;;;;;8.05;4.60;;;;;;;3.76;100.00;98616.09;5031315;28;20407;-60
2024/02/24 09:10:21;;;;;;;8.45;4.60;;;;;;;3.79;100.00;98609.91;5031325;28;20131;-59
2024/02/24 09:12:48;;;;;;;10.20;4.95;;;;;;;3.81;100.00;98610.38;5031262;28;20513;-60
2024/02/24 09:15:15;;;;;;;12.63;5.68;;;;;;;3.85;100.00;98626.88;5031618;28;20049;-61
2024/02/24 09:17:43;;;;;;;15.18;6.80;;;;;;;3.87;100.00;98619.09;5022403;28;20055;-59
2024/02/24 09:20:11;;;;;;;9.10;6.07;;;;;;;3.82;100.00;98622.09;5031136;28;20415;-60
2024/02/24 09:22:41;;;;;;;16.73;4.97;;;;;;;3.79;100.00;98629.06;5031067;28;20056;-60
2024/02/24 09:25:17;;;;;;;8.73;4.35;;;;;;;3.84;100.00;98631.53;5030138;28;20052;-61
2024/02/24 09:27:46;;;;;;;19.38;9.27;;;;;;;3.91;100.00;98641.88;5031021;28;20041;-61
2024/02/24 09:30:13;;;;;;;15.88;6.13;;;;;;;3.98;100.00;98645.59;5031413;28;20049;-61
2024/02/24 09:32:40;;;;;;;10.25;4.60;;;;;;;4.06;100.00;98644.63;5030881;28;20415;-60
2024/02/24 09:35:08;;;;;;;7.03;4.43;;;;;;;4.13;100.00;98649.50;5031109;28;20395;-60
2024/02/24 09:37:36;;;;;;;8.55;5.03;;;;;;;4.18;100.00;98647.25;5030342;28;20053;-61
2024/02/24 09:40:06;;;;;;;6.60;4.00;;;;;;;4.28;100.00;98649.50;5025560;28;20823;-61
2024/02/24 09:42:34;;;;;;;8.70;3.40;;;;;;;4.37;100.00;98645.78;5027799;28;20041;-59
2024/02/24 09:45:04;;;;;;;6.50;3.00;;;;;;;4.37;100.00;98649.28;5026340;28;20053;-61
2024/02/24 09:47:32;;;;;;;10.38;4.40;;;;;;;4.36;100.00;98653.19;5030735;28;20045;-61
2024/02/24 09:50:00;;;;;;;9.88;4.38;;;;;;;4.43;100.00;98649.81;5029859;28;20050;-61
2024/02/24 09:52:31;;;;;;;6.40;3.65;;;;;;;4.49;100.00;98640.19;5029489;28;20108;-61
2024/02/24 09:54:58;;;;;;;9.02;3.70;;;;;;;4.50;100.00;98648.03;5030073;28;20574;-61
2024/02/24 09:57:29;;;;;;;9.35;3.92;;;;;;;4.56;100.00;98659.50;5030384;28;20068;-61
2024/02/24 09:59:58;;;;;;;7.45;4.93;;;;;;;4.67;100.00;98660.56;5028415;28;20034;-60
2024/02/24 10:02:26;;;;;;;7.15;4.85;;;;;;;4.79;100.00;98671.44;5030482;28;20058;-61
2024/02/24 10:04:54;;;;;;;14.10;5.10;;;;;;;4.82;100.00;98673.44;5020861;28;20049;-62
2024/02/24 10:07:22;;;;;;;9.32;4.72;;;;;;;4.82;100.00;98681.66;5030020;28;20041;-61
2024/02/24 10:09:49;;;;;;;6.43;4.80;;;;;;;4.84;100.00;98682.13;5029794;28;20538;-61
2024/02/24 10:12:16;;;;;;;13.38;6.75;;;;;;;4.81;100.00;98682.81;5030035;28;20049;-61
2024/02/24 10:14:44;;;;;;;16.33;7.00;;;;;;;4.84;100.00;98685.63;5028975;28;20064;-61
2024/02/24 10:17:11;;;;;;;13.75;8.40;;;;;;;4.87;100.00;98689.63;5028699;28;20538;-60
2024/02/24 10:19:39;;;;;;;11.85;7.75;;;;;;;4.98;100.00;98695.34;5027519;28;20618;-61
2024/02/24 10:22:06;;;;;;;16.10;7.43;;;;;;;5.08;100.00;98695.59;5030628;28;20041;-61
2024/02/24 10:24:34;;;;;;;17.00;9.10;;;;;;;5.14;100.00;98698.81;5029364;28;20072;-61
2024/02/24 10:27:02;;;;;;;15.60;8.60;;;;;;;5.16;100.00;98697.34;5030488;28;20048;-61
2024/02/24 10:29:30;;;;;;;17.50;8.27;;;;;;;5.28;100.00;98699.94;5029500;28;20071;-61
2024/02/24 10:31:59;;;;;;;19.75;10.10;;;;;;;5.36;100.00;98712.66;5029653;28;20746;-61
2024/02/24 10:34:28;;;;;;;16.33;8.52;;;;;;;5.34;100.00;98708.69;5029499;28;20418;-61
2024/02/24 10:37:00;;;;;;;24.23;11.88;;;;;;;5.31;100.00;98715.69;5027398;28;20041;-62
2024/02/24 10:39:33;;;;;;;19.38;9.77;;;;;;;5.32;100.00;98716.47;5029538;28;20522;-60
2024/02/24 10:42:04;;;;;;;15.60;8.45;;;;;;;5.24;100.00;98721.00;5026520;28;20072;-61
2024/02/24 10:44:37;;;;;;;18.40;9.48;;;;;;;5.14;100.00;98724.31;5027516;28;20498;-62
2024/02/24 10:47:04;;;;;;;15.38;8.70;;;;;;;5.07;100.00;98721.41;5028360;28;20093;-61
2024/02/24 10:49:32;;;;;;;13.27;8.23;;;;;;;5.00;100.00;98720.47;5027875;28;20049;-62
2024/02/24 10:52:00;;;;;;;17.88;8.77;;;;;;;4.95;100.00;98724.25;5028563;28;20057;-61
2024/02/24 10:54:31;;;;;;;17.92;10.05;;;;;;;4.91;100.00;98735.16;5017595;28;20088;-62
2024/02/24 10:57:00;;;;;;;19.73;9.57;;;;;;;4.89;100.00;98722.97;5026621;28;20056;-61
2024/02/24 10:59:32;;;;;;;20.38;10.25;;;;;;;4.90;100.00;98727.28;5015921;28;20058;-62
2024/02/24 11:02:06;;;;;;;20.02;9.52;;;;;;;4.88;100.00;98740.56;5015579;28;20067;-61
2024/02/24 11:04:35;;;;;;;13.63;6.93;;;;;;;4.86;100.00;98748.34;5029096;28;20048;-62
2024/02/24 11:07:06;;;;;;;13.13;5.97;;;;;;;4.84;100.00;98747.91;5021564;28;20049;-62
2024/02/24 11:09:39;;;;;;;9.18;6.00;;;;;;;4.83;100.00;98757.28;5027651;28;20056;-61
2024/02/24 11:12:10;;;;;;;;;;;;;;;4.83;100.00;98757.28;5028023;28;20053;-61
2024/02/24 11:14:40;;;;;;;12.82;6.55;;;;;;;4.90;100.00;98755.50;5041776;28;19921;-61
2024/02/24 11:17:10;;;;;;;12.13;5.88;;;;;;;5.00;100.00;98764.34;5028827;28;20041;-62
2024/02/24 11:19:48;;;;;;;15.02;6.82;;;;;;;5.12;100.00;98762.28;5028110;28;20065;-62
2024/02/24 11:22:19;;;;;;;12.85;6.28;;;;;;;5.25;100.00;98766.50;5029148;28;20064;-61
2024/02/24 11:24:59;;;;;;;13.55;6.57;;;;;;;5.45;100.00;98781.81;5015807;28;20494;-61
2024/02/24 11:27:30;;;;;;;11.15;5.10;;;;;;;5.64;100.00;98785.78;5028206;28;20550;-62
2024/02/24 11:30:35;;;;;;;13.77;5.80;;;;;;;5.64;100.00;98788.50;5029072;28;20372;-62
2024/02/24 11:33:28;;;;;;;12.20;6.45;;;;;;;5.67;100.00;98793.25;5015378;28;20049;-62
2024/02/24 11:35:58;;;;;;;10.07;5.68;;;;;;;5.73;100.00;98797.31;5028153;28;20045;-61
2024/02/24 11:38:25;;;;;;;10.25;4.97;;;;;;;5.82;100.00;98806.16;5028399;28;20415;-62